Time;durP1;ratioP1;P1;durP2;ratioP2;P2;SDS_P1;SDS_P2;PMS_P1;PMS_P2;Temp;Humidity;BMP_temperature;BMP_pressure;BME280_temperature;BME280_humidity;BME280_pressure;Samples;Min_cycle;Max_cycle;Signal;HPM_P1;HPM_P2
2022/10/14 00:00:39;;;;;;;25.80;17.63;;;14.30;41.50;;;;;;5039433;28;20634;-68
2022/10/14 00:03:05;;;;;;;22.53;16.40;;;14.40;41.70;;;;;;5041178;28;20458;-67
2022/10/14 00:05:34;;;;;;;27.87;19.03;;;14.30;41.70;;;;;;5042957;28;20493;-67
2022/10/14 00:08:00;;;;;;;21.60;17.37;;;14.30;41.70;;;;;;5041981;28;20829;-68
2022/10/14 00:10:27;;;;;;;23.80;17.53;;;14.40;41.70;;;;;;5039507;28;20469;-68
2022/10/14 00:12:54;;;;;;;21.50;17.30;;;14.40;42.20;;;;;;5047003;28;20458;-68
2022/10/14 00:15:21;;;;;;;29.60;19.50;;;14.40;41.70;;;;;;5035499;28;20485;-68
2022/10/14 00:17:47;;;;;;;24.63;18.60;;;14.40;41.80;;;;;;5044452;28;20467;-68
2022/10/14 00:20:14;;;;;;;25.30;18.13;;;14.40;41.70;;;;;;5045882;28;20458;-67
2022/10/14 00:22:42;;;;;;;27.20;18.20;;;14.40;41.70;;;;;;5043493;28;20978;-67
2022/10/14 00:25:09;;;;;;;27.10;17.80;;;14.40;41.60;;;;;;5042510;28;20465;-68
2022/10/14 00:27:36;;;;;;;25.13;18.73;;;14.40;41.70;;;;;;5035579;28;20453;-69
2022/10/14 00:30:03;;;;;;;26.00;18.07;;;14.40;41.70;;;;;;5041980;28;20457;-74
2022/10/14 00:32:30;;;;;;;26.77;18.07;;;14.40;41.70;;;;;;5034849;28;20485;-68
2022/10/14 00:34:57;;;;;;;26.33;17.07;;;14.40;41.70;;;;;;5041342;28;20462;-70
2022/10/14 00:37:24;;;;;;;22.20;17.33;;;14.40;41.70;;;;;;5035879;28;20582;-68
2022/10/14 00:39:52;;;;;;;30.83;19.57;;;14.40;41.70;;;;;;5038490;28;21011;-68
2022/10/14 00:42:19;;;;;;;23.67;17.70;;;14.40;41.60;;;;;;5042690;28;20884;-69
2022/10/14 00:45:05;;;;;;;30.83;18.10;;;14.40;41.60;;;;;;5041207;28;20458;-68
2022/10/14 00:47:33;;;;;;;22.63;17.50;;;14.40;42.00;;;;;;5041517;28;20466;-68
2022/10/14 00:50:00;;;;;;;27.43;18.90;;;14.50;41.60;;;;;;5040760;28;20453;-68
2022/10/14 00:52:27;;;;;;;24.40;17.63;;;14.50;41.70;;;;;;5043367;28;20539;-67
2022/10/14 00:55:00;;;;;;;23.90;17.70;;;14.50;41.70;;;;;;5038219;28;20469;-68
2022/10/14 00:57:27;;;;;;;26.70;19.17;;;14.50;41.70;;;;;;5042061;28;20457;-68
2022/10/14 00:59:59;;;;;;;28.80;20.30;;;14.50;41.70;;;;;;5044180;28;20454;-68
2022/10/14 01:02:26;;;;;;;26.30;19.50;;;14.50;41.80;;;;;;5041869;28;20520;-67
2022/10/14 01:04:53;;;;;;;31.50;20.27;;;14.50;41.70;;;;;;5040400;28;20457;-69
2022/10/14 01:07:31;;;;;;;28.60;21.37;;;14.50;41.90;;;;;;5039077;28;20500;-68
2022/10/14 01:10:06;;;;;;;29.13;18.90;;;14.50;41.90;;;;;;5041830;28;20476;-68
2022/10/14 01:12:41;;;;;;;25.80;18.50;;;14.60;41.90;;;;;;5042431;28;20470;-67
2022/10/14 01:15:17;;;;;;;26.63;19.20;;;14.50;41.90;;;;;;5037620;28;20455;-69
2022/10/14 01:17:55;;;;;;;26.73;19.67;;;14.50;42.20;;;;;;5047632;28;20462;-67
2022/10/14 01:20:45;;;;;;;31.93;18.97;;;14.50;42.00;;;;;;5047354;28;20492;-68
2022/10/14 01:23:46;;;;;;;24.23;17.17;;;14.50;42.10;;;;;;5045580;28;20454;-69
2022/10/14 01:26:40;;;;;;;25.60;17.80;;;14.50;42.40;;;;;;4998326;28;20495;-67
2022/10/14 01:29:21;;;;;;;27.67;17.73;;;14.50;42.40;;;;;;5044152;28;20458;-67
2022/10/14 01:31:59;;;;;;;23.93;17.73;;;14.50;42.20;;;;;;5043131;28;20506;-68
2022/10/14 01:34:31;;;;;;;25.87;17.10;;;14.60;42.30;;;;;;5046925;28;20465;-68
2022/10/14 01:37:01;;;;;;;23.90;17.10;;;14.60;42.20;;;;;;5039877;28;20478;-68
2022/10/14 01:39:33;;;;;;;20.60;15.57;;;14.60;42.20;;;;;;5044583;28;20461;-68
2022/10/14 01:42:03;;;;;;;25.00;15.40;;;14.60;42.10;;;;;;5045867;28;20451;-68
2022/10/14 01:44:32;;;;;;;20.37;14.07;;;14.60;42.00;;;;;;5048840;28;20981;-68
2022/10/14 01:47:04;;;;;;;20.10;14.20;;;14.60;41.90;;;;;;5045532;28;20481;-69
2022/10/14 01:49:35;;;;;;;20.40;15.07;;;14.50;42.00;;;;;;5046759;28;20463;-68
2022/10/14 01:52:06;;;;;;;17.37;13.33;;;14.50;42.00;;;;;;5043617;28;20470;-68
2022/10/14 01:54:35;;;;;;;20.97;14.13;;;14.50;42.00;;;;;;5041788;28;20458;-69
2022/10/14 01:57:06;;;;;;;20.43;14.30;;;14.50;42.00;;;;;;5043820;28;21017;-69
2022/10/14 01:59:34;;;;;;;21.07;14.50;;;14.50;42.00;;;;;;5047581;28;21010;-69
2022/10/14 02:02:02;;;;;;;19.73;13.27;;;14.50;42.00;;;;;;5044325;28;20489;-68
2022/10/14 02:04:29;;;;;;;18.23;12.57;;;14.50;42.00;;;;;;5045273;28;20458;-67
2022/10/14 02:07:04;;;;;;;18.67;12.93;;;14.40;41.90;;;;;;5044329;28;20474;-70
2022/10/14 02:09:41;;;;;;;18.80;12.87;;;14.40;41.90;;;;;;5043416;28;20460;-68
2022/10/14 02:12:19;;;;;;;17.23;12.57;;;14.40;41.90;;;;;;5043888;28;20481;-68
2022/10/14 02:14:53;;;;;;;20.37;13.80;;;14.40;42.00;;;;;;5047060;28;20458;-67
2022/10/14 02:17:25;;;;;;;18.70;13.20;;;14.40;41.90;;;;;;5044984;28;20466;-68
2022/10/14 02:19:57;;;;;;;20.17;13.63;;;14.40;42.10;;;;;;5044465;28;20458;-68
2022/10/14 02:22:31;;;;;;;18.87;13.17;;;14.30;41.90;;;;;;5032861;28;20463;-68
2022/10/14 02:25:04;;;;;;;23.80;13.03;;;14.40;41.70;;;;;;5040949;28;20980;-68
2022/10/14 02:27:32;;;;;;;18.13;12.00;;;14.30;41.80;;;;;;5035160;28;20473;-68
2022/10/14 02:29:59;;;;;;;22.00;12.63;;;14.30;41.80;;;;;;5048496;28;20469;-68
2022/10/14 02:32:28;;;;;;;20.90;13.30;;;14.30;41.90;;;;;;5034603;28;20483;-67
2022/10/14 02:34:57;;;;;;;17.10;12.30;;;14.30;41.90;;;;;;5045022;28;20990;-67
2022/10/14 02:37:26;;;;;;;20.43;14.10;;;14.30;41.80;;;;;;5048318;28;20460;-68
2022/10/14 02:39:57;;;;;;;19.13;13.07;;;14.30;41.90;;;;;;5046939;28;20852;-68
2022/10/14 02:42:24;;;;;;;19.53;12.80;;;14.30;42.10;;;;;;5042701;28;20813;-68
2022/10/14 02:44:53;;;;;;;20.07;11.70;;;14.30;41.90;;;;;;5038239;28;20477;-70
2022/10/14 02:47:21;;;;;;;15.77;10.33;;;14.30;41.90;;;;;;5038273;28;20487;-69
2022/10/14 02:49:49;;;;;;;19.80;11.10;;;14.30;41.90;;;;;;5045525;28;20466;-68
2022/10/14 02:52:16;;;;;;;15.33;11.13;;;14.30;41.90;;;;;;5043438;28;20465;-69
2022/10/14 02:54:42;;;;;;;16.63;10.23;;;14.30;41.90;;;;;;5040139;28;20462;-70
2022/10/14 02:57:09;;;;;;;17.10;11.93;;;14.30;41.90;;;;;;5045358;28;20478;-69
2022/10/14 02:59:38;;;;;;;15.67;10.70;;;14.30;42.00;;;;;;5037959;28;21007;-68
2022/10/14 03:02:05;;;;;;;18.03;12.60;;;14.30;41.70;;;;;;5044033;28;20478;-68
2022/10/14 03:04:32;;;;;;;14.80;11.10;;;14.30;41.90;;;;;;5045205;28;20966;-67
2022/10/14 03:07:00;;;;;;;15.00;9.90;;;14.30;42.00;;;;;;5043102;28;20484;-68
2022/10/14 03:09:27;;;;;;;18.37;10.73;;;14.30;42.00;;;;;;5041124;28;20459;-68
2022/10/14 03:11:54;;;;;;;16.97;10.00;;;14.30;42.00;;;;;;5040926;28;20474;-69
2022/10/14 03:14:21;;;;;;;15.83;10.83;;;14.30;42.20;;;;;;5040003;28;20461;-69
2022/10/14 03:16:47;;;;;;;16.27;9.97;;;14.30;42.00;;;;;;5045781;28;20484;-67
2022/10/14 03:19:14;;;;;;;19.50;11.47;;;14.30;42.50;;;;;;5037167;28;20459;-69
2022/10/14 03:21:41;;;;;;;19.87;10.97;;;14.30;42.50;;;;;;5043215;28;20454;-67
2022/10/14 03:24:10;;;;;;;14.43;10.13;;;14.30;42.50;;;;;;5040412;28;20459;-67
2022/10/14 03:26:37;;;;;;;18.07;12.23;;;14.30;42.60;;;;;;5043047;28;20474;-69
2022/10/14 03:29:03;;;;;;;18.67;10.80;;;14.20;42.40;;;;;;5042237;28;20462;-67
2022/10/14 03:31:30;;;;;;;17.47;10.40;;;14.20;42.40;;;;;;5033941;28;20478;-68
2022/10/14 03:33:57;;;;;;;18.37;10.30;;;14.20;42.50;;;;;;5041591;28;20469;-68
2022/10/14 03:36:24;;;;;;;15.30;10.10;;;14.20;42.50;;;;;;5042254;28;21167;-68
2022/10/14 03:38:51;;;;;;;16.23;10.50;;;14.20;42.70;;;;;;5036379;28;20467;-69
2022/10/14 03:41:19;;;;;;;14.20;10.17;;;14.20;42.80;;;;;;5046513;28;20458;-69
2022/10/14 03:43:45;;;;;;;15.60;10.13;;;14.20;42.70;;;;;;5038289;28;20458;-68
2022/10/14 03:46:13;;;;;;;13.73;9.77;;;14.20;42.60;;;;;;5040164;28;20486;-68
2022/10/14 03:48:40;;;;;;;17.57;10.63;;;14.20;42.60;;;;;;5038434;28;20477;-68
2022/10/14 03:51:07;;;;;;;16.60;10.57;;;14.20;42.50;;;;;;5044384;28;20462;-69
2022/10/14 03:53:34;;;;;;;17.20;11.20;;;14.20;42.60;;;;;;5044686;28;20478;-70
2022/10/14 03:56:01;;;;;;;13.70;9.77;;;14.20;42.70;;;;;;5042261;28;20500;-68
2022/10/14 03:58:29;;;;;;;17.20;9.03;;;14.20;42.70;;;;;;5035342;28;20462;-68
2022/10/14 04:00:56;;;;;;;15.47;9.63;;;14.10;42.90;;;;;;5035202;28;20482;-66
2022/10/14 04:03:23;;;;;;;13.17;9.30;;;14.10;42.70;;;;;;5040798;28;20990;-64
2022/10/14 04:05:49;;;;;;;19.23;10.60;;;14.10;42.90;;;;;;5037559;28;20486;-66
2022/10/14 04:08:16;;;;;;;19.87;10.87;;;14.10;42.90;;;;;;5036065;28;20461;-66
2022/10/14 04:10:43;;;;;;;14.00;8.93;;;14.10;42.90;;;;;;5038306;28;20952;-66
2022/10/14 04:13:10;;;;;;;17.00;10.40;;;14.10;43.10;;;;;;5042803;28;20486;-66
2022/10/14 04:15:38;;;;;;;14.87;9.73;;;14.10;43.10;;;;;;5042503;28;20482;-68
2022/10/14 04:18:05;;;;;;;16.63;10.70;;;14.10;43.10;;;;;;5042025;28;20458;-68
2022/10/14 04:20:32;;;;;;;18.67;10.27;;;14.10;43.10;;;;;;5042362;28;20465;-66
2022/10/14 04:22:59;;;;;;;15.50;10.17;;;14.10;43.10;;;;;;5037025;28;20572;-66
2022/10/14 04:25:26;;;;;;;18.70;10.93;;;14.10;43.20;;;;;;5039614;28;20474;-66
2022/10/14 04:27:53;;;;;;;17.60;10.43;;;14.10;43.30;;;;;;5037673;28;20461;-66
2022/10/14 04:30:20;;;;;;;14.60;9.77;;;14.10;43.10;;;;;;5036115;28;20462;-66
2022/10/14 04:32:48;;;;;;;14.03;10.03;;;14.00;43.40;;;;;;5037756;28;20504;-67
2022/10/14 04:35:15;;;;;;;15.17;9.53;;;14.10;43.40;;;;;;5042156;28;20462;-68
2022/10/14 04:37:42;;;;;;;16.70;10.10;;;14.00;43.30;;;;;;5039153;28;20474;-64
2022/10/14 04:40:09;;;;;;;16.87;10.10;;;14.00;43.30;;;;;;5035580;28;21073;-69
2022/10/14 04:42:36;;;;;;;15.37;9.40;;;14.00;43.30;;;;;;5039118;28;20454;-64
2022/10/14 04:45:03;;;;;;;13.37;9.97;;;14.00;43.30;;;;;;5036057;28;20459;-69
2022/10/14 04:47:30;;;;;;;16.50;10.83;;;14.00;43.50;;;;;;5040275;28;20470;-69
2022/10/14 04:49:58;;;;;;;18.83;11.03;;;14.00;43.40;;;;;;5038417;28;20477;-67
2022/10/14 04:52:25;;;;;;;17.70;11.27;;;14.00;43.30;;;;;;5031382;28;20514;-71
2022/10/14 04:54:52;;;;;;;15.70;11.43;;;14.00;43.40;;;;;;5030525;28;21082;-68
2022/10/14 04:57:18;;;;;;;15.70;11.13;;;14.00;43.30;;;;;;5040193;28;20939;-69
2022/10/14 04:59:45;;;;;;;16.67;11.57;;;13.90;43.40;;;;;;5038159;28;20457;-69
2022/10/14 05:02:12;;;;;;;16.00;11.00;;;13.90;43.40;;;;;;5041873;28;20473;-70
2022/10/14 05:04:39;;;;;;;16.77;10.80;;;13.90;43.40;;;;;;5042449;28;20469;-70
2022/10/14 05:07:07;;;;;;;37.97;13.03;;;13.90;43.40;;;;;;5042481;28;20570;-71
2022/10/14 05:09:33;;;;;;;17.70;11.37;;;13.90;43.50;;;;;;5039502;28;20464;-71
2022/10/14 05:12:01;;;;;;;14.90;10.07;;;13.90;43.50;;;;;;5039375;28;20462;-71
2022/10/14 05:14:28;;;;;;;18.10;11.37;;;14.00;43.50;;;;;;5046821;28;21174;-69
2022/10/14 05:16:55;;;;;;;18.37;11.50;;;13.90;43.50;;;;;;5047476;28;20485;-73
2022/10/14 05:19:22;;;;;;;21.73;11.97;;;13.90;43.60;;;;;;5040985;28;20454;-68
2022/10/14 05:21:48;;;;;;;17.70;11.40;;;13.90;43.60;;;;;;5038724;28;20837;-68
2022/10/14 05:24:16;;;;;;;19.17;12.10;;;13.90;43.60;;;;;;5045286;28;20462;-71
2022/10/14 05:26:43;;;;;;;20.27;12.70;;;13.90;43.60;;;;;;5046124;28;20481;-69
2022/10/14 05:29:11;;;;;;;18.73;13.40;;;13.90;43.40;;;;;;5044057;28;20460;-71
2022/10/14 05:31:38;;;;;;;20.53;14.27;;;13.90;43.80;;;;;;5036770;28;20478;-71
2022/10/14 05:34:05;;;;;;;24.17;13.70;;;13.90;43.70;;;;;;5040272;28;20478;-69
2022/10/14 05:36:32;;;;;;;19.10;12.60;;;13.90;43.70;;;;;;5041458;28;20482;-71
2022/10/14 05:38:59;;;;;;;20.27;13.50;;;13.80;43.70;;;;;;5040972;28;21238;-69
2022/10/14 05:41:27;;;;;;;17.50;12.83;;;13.90;43.50;;;;;;5031492;28;20551;-67
2022/10/14 05:43:54;;;;;;;20.17;12.60;;;13.90;43.80;;;;;;5043950;28;20455;-69
2022/10/14 05:46:20;;;;;;;20.03;13.57;;;13.90;43.50;;;;;;5039600;28;20496;-69
2022/10/14 05:48:47;;;;;;;25.10;14.87;;;13.90;43.70;;;;;;5043027;28;20466;-69
2022/10/14 05:51:14;;;;;;;21.07;15.43;;;13.90;43.60;;;;;;5040014;28;20466;-69
2022/10/14 05:53:42;;;;;;;19.53;13.87;;;13.90;43.60;;;;;;5041869;28;20473;-70
2022/10/14 05:56:10;;;;;;;20.10;13.83;;;13.90;43.70;;;;;;5039216;28;22493;-70
2022/10/14 05:58:38;;;;;;;19.60;14.10;;;13.90;43.50;;;;;;5043664;28;20849;-69
2022/10/14 06:01:06;;;;;;;25.10;14.20;;;13.90;43.50;;;;;;5037537;28;21001;-68
2022/10/14 06:03:34;;;;;;;19.50;13.30;;;13.90;43.50;;;;;;5038635;28;20463;-71
2022/10/14 06:06:00;;;;;;;23.27;14.73;;;13.90;44.20;;;;;;5039578;28;20488;-68
2022/10/14 06:08:28;;;;;;;17.37;13.37;;;13.90;43.70;;;;;;5038858;28;20458;-72
2022/10/14 06:10:55;;;;;;;19.43;13.00;;;14.00;43.20;;;;;;5038788;28;20925;-73
2022/10/14 06:13:22;;;;;;;18.30;13.43;;;14.10;43.40;;;;;;5030464;28;20474;-70
2022/10/14 06:15:50;;;;;;;19.53;12.33;;;14.30;43.30;;;;;;5039322;28;20497;-66
2022/10/14 06:18:17;;;;;;;15.90;11.87;;;14.40;42.90;;;;;;5033610;28;20466;-68
2022/10/14 06:20:43;;;;;;;15.27;11.23;;;14.40;42.60;;;;;;5038262;28;20458;-72
2022/10/14 06:23:10;;;;;;;16.53;11.50;;;14.50;42.40;;;;;;5043330;28;20458;-64
2022/10/14 06:25:37;;;;;;;16.37;10.97;;;14.50;42.20;;;;;;5042625;28;20478;-68
2022/10/14 06:28:05;;;;;;;17.90;11.43;;;14.50;41.80;;;;;;5044676;28;20458;-71
2022/10/14 06:30:32;;;;;;;16.13;10.97;;;14.50;41.40;;;;;;5036062;28;20480;-71
2022/10/14 06:33:00;;;;;;;19.27;11.80;;;14.60;42.00;;;;;;5042359;28;20470;-70
2022/10/14 06:35:27;;;;;;;16.17;11.23;;;14.60;41.30;;;;;;5041428;28;20594;-70
2022/10/14 06:37:54;;;;;;;16.77;12.47;;;14.70;41.30;;;;;;5041276;28;21000;-71
2022/10/14 06:40:21;;;;;;;19.20;11.53;;;14.70;41.10;;;;;;5035893;28;20469;-72
2022/10/14 06:42:47;;;;;;;18.63;11.80;;;14.80;41.00;;;;;;5039437;28;20462;-72
2022/10/14 06:45:14;;;;;;;16.80;10.77;;;15.00;40.80;;;;;;5036740;28;23108;-69
2022/10/14 06:47:41;;;;;;;13.20;9.53;;;15.40;42.10;;;;;;5034217;28;20830;-65
2022/10/14 06:50:09;;;;;;;13.37;8.80;;;16.40;40.40;;;;;;5027518;28;21188;-66
2022/10/14 06:52:38;;;;;;;10.93;8.03;;;17.20;36.60;;;;;;5037600;28;20481;-67
2022/10/14 06:55:06;;;;;;;12.10;7.80;;;17.90;35.00;;;;;;5028529;28;20604;-66
2022/10/14 06:57:32;;;;;;;11.27;7.73;;;18.50;34.10;;;;;;5036399;28;20461;-65
2022/10/14 06:59:59;;;;;;;11.20;8.43;;;19.00;31.20;;;;;;5029656;28;20462;-67
2022/10/14 07:02:26;;;;;;;12.93;8.07;;;19.30;29.00;;;;;;5033465;28;20470;-63
2022/10/14 07:04:53;;;;;;;10.93;7.40;;;19.70;26.50;;;;;;5033626;28;22288;-67
2022/10/14 07:07:21;;;;;;;10.30;7.10;;;20.20;24.50;;;;;;5038895;28;21165;-68
2022/10/14 07:09:47;;;;;;;10.90;7.20;;;20.70;24.50;;;;;;5035836;28;20462;-65
2022/10/14 07:12:14;;;;;;;12.30;7.67;;;21.00;22.20;;;;;;5042248;28;20465;-68
2022/10/14 07:14:41;;;;;;;10.43;6.30;;;21.30;21.00;;;;;;5036071;28;21188;-66
2022/10/14 07:17:09;;;;;;;13.37;5.70;;;21.60;19.60;;;;;;5033198;28;20486;-69
2022/10/14 07:19:35;;;;;;;9.90;5.90;;;22.30;18.70;;;;;;5036328;28;20590;-67
2022/10/14 07:22:02;;;;;;;7.77;5.77;;;22.90;17.40;;;;;;5041089;28;20481;-72
2022/10/14 07:24:30;;;;;;;8.10;4.77;;;22.90;16.80;;;;;;5039744;28;20458;-66
2022/10/14 07:26:57;;;;;;;13.10;6.40;;;22.40;16.60;;;;;;5034726;28;21220;-65
2022/10/14 07:29:24;;;;;;;8.90;5.50;;;22.20;17.00;;;;;;5040896;28;20972;-67
2022/10/14 07:31:51;;;;;;;7.80;5.27;;;22.20;17.10;;;;;;5035779;28;20474;-79
2022/10/14 07:34:17;;;;;;;9.70;5.83;;;22.40;16.90;;;;;;5038001;28;20474;-71
2022/10/14 07:36:44;;;;;;;10.70;6.10;;;22.60;16.70;;;;;;5039298;28;20486;-71
2022/10/14 07:39:11;;;;;;;7.80;4.90;;;22.60;16.40;;;;;;5041869;28;20466;-72
2022/10/14 07:41:40;;;;;;;7.23;4.27;;;22.50;16.60;;;;;;5038862;28;20463;-71
2022/10/14 07:44:08;;;;;;;7.30;4.97;;;22.30;16.30;;;;;;5038628;28;21049;-72
2022/10/14 07:46:38;;;;;;;11.70;4.73;;;22.10;16.10;;;;;;5037690;28;20493;-71
2022/10/14 07:49:08;;;;;;;7.70;4.10;;;21.70;16.80;;;;;;5039593;28;20458;-72
2022/10/14 07:51:36;;;;;;;7.57;4.83;;;21.30;17.10;;;;;;5041478;28;20469;-69
2022/10/14 07:54:05;;;;;;;6.80;4.23;;;21.00;17.90;;;;;;5033953;28;20489;-74
2022/10/14 07:56:33;;;;;;;8.37;4.87;;;20.70;18.50;;;;;;5031839;28;20475;-75
2022/10/14 07:59:01;;;;;;;7.37;4.73;;;20.30;19.20;;;;;;5036474;28;20460;-65
2022/10/14 08:01:28;;;;;;;7.60;4.27;;;20.00;19.80;;;;;;5041595;28;20473;-65
2022/10/14 08:03:55;;;;;;;6.70;4.07;;;19.80;20.10;;;;;;5038742;28;20456;-65
2022/10/14 08:06:22;;;;;;;7.60;4.83;;;19.50;20.90;;;;;;5036679;28;20485;-65
2022/10/14 08:08:48;;;;;;;8.27;4.20;;;19.30;21.70;;;;;;5032627;28;20462;-67
2022/10/14 08:11:17;;;;;;;6.60;3.60;;;19.10;22.40;;;;;;5041642;28;20615;-64
2022/10/14 08:13:45;;;;;;;7.77;4.03;;;18.90;23.20;;;;;;5038596;28;20477;-65
2022/10/14 08:16:16;;;;;;;5.60;3.80;;;18.70;23.50;;;;;;5038616;28;21009;-64
2022/10/14 08:18:43;;;;;;;7.63;4.10;;;18.60;24.10;;;;;;5026087;28;20817;-64
2022/10/14 08:21:10;;;;;;;6.70;4.20;;;18.50;24.80;;;;;;5040492;28;20462;-69
2022/10/14 08:23:36;;;;;;;7.90;4.60;;;18.40;25.00;;;;;;5045029;28;20977;-73
2022/10/14 08:26:06;;;;;;;12.90;4.30;;;18.40;25.30;;;;;;5041249;28;20478;-74
2022/10/14 08:28:33;;;;;;;6.93;4.37;;;18.40;25.40;;;;;;5046981;28;20458;-72
2022/10/14 08:31:01;;;;;;;9.13;4.60;;;18.50;25.50;;;;;;5043533;28;20974;-73
2022/10/14 08:33:29;;;;;;;10.83;4.60;;;18.50;25.60;;;;;;5042753;28;21052;-76
2022/10/14 08:35:56;;;;;;;6.70;4.50;;;18.50;25.90;;;;;;5044216;28;20488;-73
2022/10/14 08:38:25;;;;;;;7.53;3.70;;;18.60;26.00;;;;;;5039196;28;20474;-76
2022/10/14 08:41:00;;;;;;;6.57;2.87;;;18.70;26.10;;;;;;5040580;28;20453;-71
2022/10/14 08:43:33;;;;;;;5.50;2.60;;;18.70;24.80;;;;;;5040906;28;20456;-72
2022/10/14 08:46:06;;;;;;;7.33;3.50;;;18.80;24.70;;;;;;5041691;28;20627;-70
2022/10/14 08:48:35;;;;;;;5.10;2.93;;;18.80;24.20;;;;;;5038538;28;20463;-79
2022/10/14 08:51:05;;;;;;;8.53;3.60;;;18.80;23.80;;;;;;5042914;28;20454;-78
2022/10/14 08:53:37;;;;;;;5.23;2.70;;;18.80;23.60;;;;;;5035759;28;20493;-71
2022/10/14 08:56:05;;;;;;;5.27;2.70;;;18.70;24.10;;;;;;5040458;28;20486;-71
2022/10/14 08:58:37;;;;;;;9.40;3.50;;;18.60;23.60;;;;;;5044123;28;20489;-72
2022/10/14 09:01:13;;;;;;;6.33;2.60;;;18.50;24.10;;;;;;5043089;28;20553;-65
2022/10/14 09:03:42;;;;;;;9.73;2.80;;;18.50;24.50;;;;;;5041459;28;20462;-77
2022/10/14 09:06:15;;;;;;;5.17;2.50;;;18.40;24.70;;;;;;5039366;28;20474;-74
2022/10/14 09:08:45;;;;;;;5.80;2.77;;;18.40;25.10;;;;;;5044114;28;20464;-71
2022/10/14 09:11:14;;;;;;;5.30;2.57;;;18.30;25.30;;;;;;5038749;28;20454;-74
2022/10/14 09:13:43;;;;;;;5.10;2.17;;;18.40;25.80;;;;;;5036606;28;20486;-73
2022/10/14 09:16:19;;;;;;;7.10;3.07;;;18.50;26.10;;;;;;5040653;28;20481;-74
2022/10/14 09:18:50;;;;;;;6.00;2.30;;;18.80;25.20;;;;;;5039898;28;20480;-77
2022/10/14 09:21:26;;;;;;;6.00;2.80;;;18.80;23.90;;;;;;5041760;28;20545;-76
2022/10/14 09:23:58;;;;;;;4.87;2.37;;;18.70;24.10;;;;;;5043897;28;20590;-76
2022/10/14 09:26:29;;;;;;;7.77;2.57;;;18.60;24.50;;;;;;5041754;28;20478;-74
2022/10/14 09:28:56;;;;;;;6.57;2.90;;;18.50;24.70;;;;;;5040283;28;20469;-73
2022/10/14 09:31:23;;;;;;;4.70;2.20;;;18.40;24.90;;;;;;5042075;28;20527;-70
2022/10/14 09:33:51;;;;;;;4.73;2.50;;;18.20;25.40;;;;;;5038323;28;20478;-72
2022/10/14 09:36:20;;;;;;;7.10;2.90;;;18.10;25.90;;;;;;5040889;28;20494;-74
2022/10/14 09:38:50;;;;;;;6.90;3.00;;;18.10;26.20;;;;;;5037764;28;20466;-70
2022/10/14 09:41:19;;;;;;;10.13;3.23;;;18.10;26.60;;;;;;5042666;28;20488;-71
2022/10/14 09:44:20;;;;;;;5.57;2.50;;;18.10;26.80;;;;;;5043620;28;20454;-75
2022/10/14 09:46:53;;;;;;;7.07;2.90;;;18.10;27.20;;;;;;5044582;28;20494;-71
2022/10/14 09:49:34;;;;;;;7.60;2.80;;;18.10;27.10;;;;;;5035673;28;20506;-69
2022/10/14 09:52:02;;;;;;;9.63;2.47;;;18.10;27.30;;;;;;5041268;28;20462;-75
2022/10/14 09:54:30;;;;;;;10.00;3.00;;;18.20;27.50;;;;;;5035415;28;20683;-75
2022/10/14 09:57:04;;;;;;;4.53;2.30;;;18.20;27.20;;;;;;5037179;28;20483;-77
2022/10/14 09:59:32;;;;;;;7.20;2.60;;;18.20;27.30;;;;;;5037814;28;21048;-79
2022/10/14 10:02:01;;;;;;;6.77;2.40;;;18.40;27.40;;;;;;5039910;28;20501;-74
2022/10/14 10:04:45;;;;;;;6.67;3.10;;;18.40;27.00;;;;;;5031997;28;20490;-70
2022/10/14 10:07:25;;;;;;;7.10;2.80;;;18.50;26.90;;;;;;5044521;28;20485;-70
2022/10/14 10:09:55;;;;;;;8.70;2.90;;;18.70;26.90;;;;;;5034369;28;20511;-73
2022/10/14 10:12:24;;;;;;;7.37;2.53;;;18.70;26.40;;;;;;5034730;28;20553;-72
2022/10/14 10:14:57;;;;;;;4.80;2.70;;;18.80;26.00;;;;;;5039696;28;20478;-70
2022/10/14 10:17:26;;;;;;;7.83;2.67;;;18.80;26.10;;;;;;5039565;28;20462;-77
2022/10/14 10:20:08;;;;;;;7.10;2.37;;;18.80;26.20;;;;;;5030281;28;20504;-77
2022/10/14 10:22:37;;;;;;;5.77;2.77;;;19.00;25.90;;;;;;5037611;28;20562;-75
2022/10/14 10:25:26;;;;;;;5.23;2.43;;;19.10;25.30;;;;;;5039878;28;20515;-76
2022/10/14 10:27:56;;;;;;;5.33;2.17;;;19.10;25.60;;;;;;5039548;28;20463;-73
2022/10/14 10:30:26;;;;;;;5.67;2.27;;;19.20;25.40;;;;;;5041512;28;20458;-69
2022/10/14 10:33:19;;;;;;;7.87;3.00;;;19.10;25.10;;;;;;5042714;28;21383;-68
2022/10/14 10:36:19;;;;;;;4.90;2.33;;;19.10;25.10;;;;;;5042214;28;20473;-68
2022/10/14 10:38:58;;;;;;;4.77;2.07;;;19.10;25.30;;;;;;5037387;28;20465;-70
2022/10/14 10:41:42;;;;;;;6.33;2.23;;;19.10;25.20;;;;;;5037260;28;20458;-67
2022/10/14 10:44:27;;;;;;;6.77;2.33;;;19.10;25.50;;;;;;5038619;28;20454;-67
2022/10/14 10:47:17;;;;;;;4.80;2.30;;;19.10;25.60;;;;;;5035098;28;20494;-72
2022/10/14 10:50:00;;;;;;;7.33;2.83;;;19.10;25.80;;;;;;5039466;28;20458;-70
2022/10/14 10:52:42;;;;;;;4.90;2.23;;;19.00;25.60;;;;;;5040549;28;20458;-70
2022/10/14 10:55:17;;;;;;;5.87;2.40;;;19.00;25.50;;;;;;5033874;28;20477;-77
2022/10/14 10:57:55;;;;;;;4.80;2.40;;;18.90;26.10;;;;;;5032112;28;20462;-70
2022/10/14 11:00:22;;;;;;;6.60;2.60;;;18.90;26.00;;;;;;5036094;28;20484;-77
2022/10/14 11:03:08;;;;;;;5.43;2.60;;;18.80;26.20;;;;;;5035967;28;20504;-72
2022/10/14 11:05:54;;;;;;;5.60;2.50;;;18.90;25.70;;;;;;5036968;28;20474;-73
2022/10/14 11:14:45;;;;;;;4.83;2.20;;;19.00;25.50;;;;;;5020147;28;20556;-73
2022/10/14 11:17:23;;;;;;;6.40;2.57;;;18.90;25.40;;;;;;5012430;28;20490;-68
2022/10/14 11:19:56;;;;;;;7.43;2.80;;;18.80;25.80;;;;;;5032318;28;20454;-72
2022/10/14 11:22:37;;;;;;;6.60;2.40;;;18.80;25.70;;;;;;5036252;28;20526;-70
2022/10/14 11:25:16;;;;;;;5.50;2.33;;;18.70;26.50;;;;;;5037467;28;20461;-71
2022/10/14 11:27:47;;;;;;;7.33;2.80;;;18.70;26.70;;;;;;5038847;28;20470;-71
2022/10/14 11:30:17;;;;;;;8.13;2.40;;;18.70;27.00;;;;;;5037383;28;20461;-77
2022/10/14 11:33:02;;;;;;;6.03;2.90;;;18.80;26.40;;;;;;5041092;28;20891;-76
2022/10/14 11:35:37;;;;;;;5.80;2.30;;;18.80;26.70;;;;;;5037430;28;20489;-79
2022/10/14 11:38:26;;;;;;;5.73;2.40;;;18.80;26.80;;;;;;5037171;28;20461;-70
2022/10/14 11:41:01;;;;;;;6.07;2.93;;;19.00;26.10;;;;;;5037284;28;20469;-78
2022/10/14 11:43:35;;;;;;;7.27;2.70;;;19.00;26.10;;;;;;5031093;28;20473;-71
2022/10/14 11:46:05;;;;;;;6.80;2.80;;;19.00;25.40;;;;;;5030997;28;21026;-70
2022/10/14 11:48:37;;;;;;;7.00;1.90;;;19.00;24.30;;;;;;5028415;28;20459;-72
2022/10/14 11:51:12;;;;;;;8.40;2.50;;;18.90;24.60;;;;;;5036076;28;20469;-72
2022/10/14 11:53:54;;;;;;;5.67;1.80;;;18.90;24.10;;;;;;5032014;28;20808;-70
2022/10/14 11:56:34;;;;;;;5.80;2.17;;;18.90;24.30;;;;;;5033826;28;20485;-72
2022/10/14 12:01:48;;;;;;;5.80;2.03;;;18.90;24.60;;;;;;5033307;28;20499;-70
2022/10/14 12:04:22;;;;;;;6.57;2.07;;;19.00;24.00;;;;;;5038341;28;20962;-69
2022/10/14 12:06:55;;;;;;;5.20;1.90;;;19.00;24.40;;;;;;5038823;28;20482;-68
2022/10/14 12:09:28;;;;;;;5.90;2.33;;;19.00;23.90;;;;;;5032145;28;20461;-71
2022/10/14 12:11:59;;;;;;;5.60;1.93;;;19.10;23.70;;;;;;5041429;28;20454;-71
2022/10/14 12:14:33;;;;;;;10.13;2.20;;;19.10;23.50;;;;;;5037872;28;20851;-72
2022/10/14 12:17:05;;;;;;;9.47;2.70;;;19.10;23.20;;;;;;5039031;28;20531;-71
2022/10/14 12:19:36;;;;;;;6.20;2.43;;;19.00;23.40;;;;;;5029283;28;20462;-71
2022/10/14 12:22:09;;;;;;;4.20;1.80;;;18.90;24.30;;;;;;5036299;28;20462;-73
2022/10/14 12:24:39;;;;;;;7.20;2.33;;;18.90;24.40;;;;;;5032944;28;20481;-71
2022/10/14 12:27:12;;;;;;;5.57;1.97;;;18.80;24.20;;;;;;5036347;28;20573;-72
2022/10/14 12:29:43;;;;;;;9.97;1.90;;;18.80;24.30;;;;;;5038125;28;20500;-71
2022/10/14 12:32:20;;;;;;;5.90;1.60;;;18.80;23.60;;;;;;5039471;28;20486;-70
2022/10/14 12:34:48;;;;;;;4.63;1.30;;;18.80;22.80;;;;;;5031465;28;20485;-73
2022/10/14 12:37:49;;;;;;;5.83;2.20;;;18.70;21.80;;;;;;5014146;28;20843;-73
2022/10/14 12:40:23;;;;;;;4.90;1.70;;;18.60;22.80;;;;;;5018015;28;20453;-71
2022/10/14 12:43:16;;;;;;;6.47;1.90;;;18.50;23.30;;;;;;5025296;28;21158;-71
2022/10/14 12:45:59;;;;;;;5.10;1.60;;;18.40;23.90;;;;;;5032624;28;20489;-72
2022/10/14 12:48:29;;;;;;;5.17;2.23;;;18.30;25.40;;;;;;5031993;28;20458;-71
2022/10/14 12:51:08;;;;;;;4.80;1.83;;;18.30;26.50;;;;;;5042610;28;20977;-72
2022/10/14 12:53:36;;;;;;;5.33;2.20;;;18.20;26.10;;;;;;5036732;28;20950;-72
2022/10/14 12:56:06;;;;;;;5.80;2.23;;;18.10;26.80;;;;;;5039207;28;20496;-72
2022/10/14 12:58:38;;;;;;;4.90;1.83;;;18.00;27.20;;;;;;5036675;28;20541;-71
2022/10/14 13:01:20;;;;;;;5.53;2.03;;;18.00;27.40;;;;;;5035298;28;21073;-74